You are listening to:
KSAR CTAF - Sparta, Illinois, United States

KSAR 250455Z AUTO 20006KT 10SM CLR 26/24 A2998 RMK AO2 T02630240

If stream doesn't start automatically press the play button
If stream stops then reload player then press play